createdAt,value
2018-09-23T00:01:43.873Z,4.10
2018-09-23T00:04:12.116Z,4.30
2018-09-23T00:06:40.313Z,4.10
2018-09-23T00:09:10.075Z,3.62
2018-09-23T00:11:39.817Z,3.87
2018-09-23T00:14:09.965Z,3.60
2018-09-23T00:16:38.229Z,3.60
2018-09-23T00:19:06.707Z,4.03
2018-09-23T00:21:34.978Z,3.53
2018-09-23T00:24:03.283Z,4.63
2018-09-23T00:26:31.551Z,5.43
2018-09-23T00:28:59.760Z,5.03
2018-09-23T00:31:28.344Z,4.95
2018-09-23T00:33:56.656Z,5.47
2018-09-23T00:36:25.682Z,6.70
2018-09-23T00:38:53.928Z,5.97
2018-09-23T00:41:22.178Z,6.37
2018-09-23T00:43:50.399Z,6.27
2018-09-23T00:46:18.624Z,7.10
2018-09-23T00:48:46.881Z,7.42
2018-09-23T00:51:15.088Z,7.80
2018-09-23T00:53:43.485Z,8.80
2018-09-23T00:56:11.927Z,8.00
2018-09-23T00:58:40.339Z,8.97
2018-09-23T01:01:08.825Z,8.37
2018-09-23T01:03:37.061Z,8.53
2018-09-23T01:06:05.275Z,8.78
2018-09-23T01:08:33.544Z,8.70
2018-09-23T01:11:01.783Z,9.03
2018-09-23T01:13:29.992Z,8.93
2018-09-23T01:15:59.597Z,9.18
2018-09-23T01:18:27.824Z,9.13
2018-09-23T01:20:56.109Z,9.43
2018-09-23T01:23:24.409Z,9.30
2018-09-23T01:25:52.622Z,8.67
2018-09-23T01:28:20.964Z,9.43
2018-09-23T01:30:49.177Z,7.80
2018-09-23T01:33:17.404Z,8.03
2018-09-23T01:35:45.738Z,8.23
2018-09-23T01:38:13.962Z,8.87
2018-09-23T01:40:42.285Z,6.87
2018-09-23T01:43:10.471Z,7.67
2018-09-23T01:45:38.728Z,8.37
2018-09-23T01:48:06.964Z,7.60
2018-09-23T01:50:35.191Z,8.13
2018-09-23T01:53:03.495Z,7.63
2018-09-23T01:55:32.698Z,8.33
2018-09-23T01:58:00.957Z,8.23
2018-09-23T02:00:29.098Z,8.33
2018-09-23T02:02:57.301Z,7.67
2018-09-23T02:05:25.534Z,7.83
2018-09-23T02:07:53.907Z,7.73
2018-09-23T02:10:22.167Z,7.80
2018-09-23T02:12:50.423Z,7.43
2018-09-23T02:15:18.666Z,7.92
2018-09-23T02:17:54.618Z,8.27
2018-09-23T02:20:23.057Z,7.70
2018-09-23T02:22:51.274Z,7.53
2018-09-23T02:25:19.490Z,7.80
2018-09-23T02:27:47.714Z,7.57
2018-09-23T02:30:15.957Z,7.85
2018-09-23T02:32:44.693Z,8.07
2018-09-23T02:35:12.968Z,8.47
2018-09-23T02:37:41.214Z,8.53
2018-09-23T02:40:09.591Z,8.23
2018-09-23T02:42:37.835Z,7.67
2018-09-23T02:45:07.647Z,8.60
2018-09-23T02:47:36.246Z,8.53
2018-09-23T02:50:04.416Z,8.87
2018-09-23T02:52:32.804Z,9.37
2018-09-23T02:55:01.110Z,8.40
2018-09-23T02:57:29.434Z,8.85
2018-09-23T02:59:57.643Z,8.63
2018-09-23T03:02:27.370Z,9.50
2018-09-23T03:04:55.695Z,10.13
2018-09-23T03:07:23.898Z,9.70
2018-09-23T03:09:52.512Z,8.70
2018-09-23T03:12:21.058Z,9.17
2018-09-23T03:14:49.324Z,9.35
2018-09-23T03:17:17.628Z,8.70
2018-09-23T03:19:45.927Z,9.40
2018-09-23T03:22:14.339Z,10.00
2018-09-23T03:24:42.520Z,9.27
2018-09-23T03:27:10.755Z,7.70
2018-09-23T03:29:38.941Z,11.00
2018-09-23T03:32:07.174Z,9.37
2018-09-23T03:34:35.629Z,9.03
2018-09-23T03:37:03.875Z,9.55
2018-09-23T03:39:34.951Z,9.37
2018-09-23T03:43:51.000Z,9.70
2018-09-23T03:46:19.288Z,8.53
2018-09-23T03:48:47.456Z,8.73
2018-09-23T03:51:15.693Z,8.67
2018-09-23T03:53:43.935Z,9.18
2018-09-23T03:56:13.475Z,9.43
2018-09-23T03:58:41.693Z,9.03
2018-09-23T04:01:09.966Z,8.67
2018-09-23T04:03:38.233Z,8.97
2018-09-23T04:06:06.496Z,9.37
2018-09-23T04:08:34.776Z,9.55
2018-09-23T04:11:02.998Z,9.10
2018-09-23T04:13:31.254Z,10.20
2018-09-23T04:15:59.472Z,8.73
2018-09-23T04:18:27.667Z,8.83
2018-09-23T04:20:55.901Z,7.93
2018-09-23T04:23:24.082Z,7.77
2018-09-23T04:25:52.362Z,6.85
2018-09-23T04:28:20.565Z,8.73
2018-09-23T04:30:48.852Z,8.28
2018-09-23T04:33:17.217Z,8.70
2018-09-23T04:35:45.700Z,8.67
2018-09-23T04:38:13.916Z,8.50
2018-09-23T04:40:42.288Z,8.60
2018-09-23T04:43:10.579Z,8.97
2018-09-23T04:45:38.864Z,9.10
2018-09-23T04:48:07.274Z,8.63
2018-09-23T04:50:35.567Z,8.00
2018-09-23T04:53:03.785Z,9.37
2018-09-23T04:55:32.023Z,9.07
2018-09-23T04:58:00.388Z,8.90
2018-09-23T05:00:28.596Z,8.47
2018-09-23T05:02:56.857Z,9.00
2018-09-23T05:05:25.064Z,7.63
2018-09-23T05:07:53.319Z,8.37
2018-09-23T05:10:21.728Z,8.83
2018-09-23T05:12:49.956Z,7.60
2018-09-23T05:20:10.999Z,7.20
2018-09-23T05:22:39.293Z,7.73
2018-09-23T05:25:07.521Z,8.97
2018-09-23T05:27:35.779Z,8.50
2018-09-23T05:30:04.157Z,7.80
2018-09-23T05:32:33.309Z,8.00
2018-09-23T05:35:01.647Z,8.57
2018-09-23T05:37:29.854Z,8.08
2018-09-23T05:39:58.205Z,8.07
2018-09-23T05:42:26.684Z,8.33
2018-09-23T05:44:54.961Z,7.15
2018-09-23T05:47:23.308Z,8.07
2018-09-23T05:49:51.632Z,8.10
2018-09-23T05:52:19.975Z,9.27
2018-09-23T05:54:48.342Z,8.50
2018-09-23T05:57:16.697Z,8.33
2018-09-23T05:59:45.047Z,8.53
2018-09-23T06:02:13.562Z,7.75
2018-09-23T06:04:41.975Z,8.43
2018-09-23T06:07:10.342Z,7.87
2018-09-23T06:09:38.616Z,7.77
2018-09-23T06:12:06.813Z,8.50
2018-09-23T06:14:35.130Z,7.80
2018-09-23T06:17:03.313Z,8.10
2018-09-23T06:19:31.576Z,8.60
2018-09-23T06:21:59.814Z,8.00
2018-09-23T06:24:28.401Z,7.73
2018-09-23T06:26:56.645Z,6.47
2018-09-23T06:34:17.695Z,7.10
2018-09-23T06:36:46.034Z,7.53
2018-09-23T06:39:14.250Z,6.60
2018-09-23T06:41:42.538Z,6.12
2018-09-23T06:44:10.797Z,6.63
2018-09-23T06:46:39.027Z,6.70
2018-09-23T06:49:07.333Z,6.13
2018-09-23T06:51:35.558Z,6.00
2018-09-23T06:54:03.807Z,5.73
2018-09-23T06:56:31.979Z,6.17
2018-09-23T06:59:00.212Z,5.50
2018-09-23T07:01:28.423Z,5.67
2018-09-23T07:03:58.265Z,6.20
2018-09-23T07:06:26.515Z,6.40
2018-09-23T07:08:54.699Z,6.25
2018-09-23T07:11:22.938Z,6.27
2018-09-23T07:13:51.320Z,6.37
2018-09-23T07:16:19.620Z,6.58
2018-09-23T07:18:47.836Z,5.73
2018-09-23T07:21:16.070Z,6.07
2018-09-23T07:23:44.512Z,6.57
2018-09-23T07:26:12.960Z,7.03
2018-09-23T07:28:41.412Z,6.60
2018-09-23T07:31:09.827Z,7.20
2018-09-23T07:33:38.065Z,7.17
2018-09-23T07:36:06.302Z,6.93
2018-09-23T07:38:34.948Z,7.10
2018-09-23T07:41:03.215Z,7.10
2018-09-23T07:43:32.402Z,7.33
2018-09-23T07:46:00.665Z,6.60
2018-09-23T07:48:28.866Z,7.33
2018-09-23T07:50:57.343Z,6.27
2018-09-23T07:53:25.649Z,6.22
2018-09-23T07:55:53.899Z,5.78
2018-09-23T07:58:22.158Z,5.47
2018-09-23T08:00:50.490Z,6.07
2018-09-23T08:03:18.831Z,5.63
2018-09-23T08:05:47.106Z,5.33
2018-09-23T08:08:15.406Z,5.37
2018-09-23T08:10:44.808Z,5.03
2018-09-23T08:13:13.121Z,5.10
2018-09-23T08:15:41.379Z,4.80
2018-09-23T08:18:09.582Z,4.58
2018-09-23T08:20:38.091Z,4.40
2018-09-23T08:23:07.402Z,3.77
2018-09-23T08:25:35.829Z,4.10
2018-09-23T08:28:04.155Z,4.40
2018-09-23T08:30:32.368Z,3.67
2018-09-23T08:33:00.690Z,3.63
2018-09-23T08:35:28.913Z,4.28
2018-09-23T08:37:57.201Z,3.30
2018-09-23T08:40:25.461Z,3.50
2018-09-23T08:42:53.898Z,3.73
2018-09-23T08:45:25.044Z,3.20
2018-09-23T08:47:53.573Z,3.43
2018-09-23T08:50:22.469Z,3.50
2018-09-23T08:52:50.704Z,3.57
2018-09-23T08:55:19.634Z,3.47
2018-09-23T08:57:48.928Z,3.62
2018-09-23T09:00:17.148Z,3.60
2018-09-23T09:02:45.514Z,3.23
2018-09-23T09:05:13.826Z,3.53
2018-09-23T09:07:42.131Z,3.43
2018-09-23T09:10:10.768Z,3.53
2018-09-23T09:12:39.001Z,4.00
2018-09-23T09:15:07.336Z,4.55
2018-09-23T09:17:35.618Z,4.20
2018-09-23T09:20:04.114Z,4.45
2018-09-23T09:22:32.518Z,5.00
2018-09-23T09:25:00.813Z,4.00
2018-09-23T09:27:29.100Z,3.37
2018-09-23T09:29:57.358Z,3.63
2018-09-23T09:32:25.735Z,3.20
2018-09-23T09:34:53.993Z,3.13
2018-09-23T09:37:22.283Z,3.10
2018-09-23T09:39:50.560Z,3.27
2018-09-23T09:42:18.851Z,2.73
2018-09-23T09:44:47.095Z,2.93
2018-09-23T09:47:15.691Z,3.20
2018-09-23T09:49:43.982Z,2.60
2018-09-23T09:52:12.267Z,2.80
2018-09-23T09:54:40.532Z,2.00
2018-09-23T09:57:08.747Z,2.40
2018-09-23T09:59:36.991Z,2.08
2018-09-23T10:02:05.618Z,1.90
2018-09-23T10:04:35.331Z,1.70
2018-09-23T10:07:03.657Z,1.80
2018-09-23T10:09:31.940Z,1.60
2018-09-23T10:12:00.285Z,1.77
2018-09-23T10:14:28.572Z,1.60
2018-09-23T10:16:57.615Z,1.50
2018-09-23T10:19:25.867Z,1.83
2018-09-23T10:21:54.330Z,1.93
2018-09-23T10:24:22.589Z,2.10
2018-09-23T10:26:51.004Z,2.13
2018-09-23T10:29:19.267Z,2.00
2018-09-23T10:31:48.142Z,1.83
2018-09-23T10:34:16.497Z,1.90
2018-09-23T10:36:44.776Z,1.90
2018-09-23T10:39:13.257Z,1.93
2018-09-23T10:41:42.542Z,2.10
2018-09-23T10:44:10.878Z,2.10
2018-09-23T10:46:39.182Z,2.13
2018-09-23T10:49:07.654Z,2.00
2018-09-23T10:51:36.234Z,2.37
2018-09-23T10:54:05.523Z,2.10
2018-09-23T10:56:33.995Z,2.00
2018-09-23T10:59:02.278Z,2.40
2018-09-23T11:01:30.645Z,2.47
2018-09-23T11:03:59.084Z,2.30
2018-09-23T11:11:20.545Z,1.83
2018-09-23T11:13:48.770Z,2.00
2018-09-23T11:16:17.066Z,1.80
2018-09-23T11:18:45.373Z,2.45
2018-09-23T11:21:13.744Z,2.20
2018-09-23T11:23:44.133Z,2.50
2018-09-23T11:26:12.360Z,2.93
2018-09-23T11:28:40.772Z,2.30
2018-09-23T11:31:09.097Z,2.70
2018-09-23T11:33:37.359Z,2.57
2018-09-23T11:36:05.754Z,2.60
2018-09-23T11:38:33.996Z,2.90
2018-09-23T11:41:02.596Z,2.53
2018-09-23T11:43:30.885Z,3.07
2018-09-23T11:50:54.722Z,3.63
2018-09-23T11:53:24.260Z,4.80
2018-09-23T11:55:52.524Z,4.53
2018-09-23T11:58:20.930Z,4.33
2018-09-23T12:00:49.630Z,4.47
2018-09-23T12:03:17.880Z,4.67
2018-09-23T12:05:46.417Z,4.87
2018-09-23T12:08:15.683Z,4.33
2018-09-23T12:10:44.133Z,4.37
2018-09-23T12:13:12.539Z,3.30
2018-09-23T12:15:41.049Z,3.67
2018-09-23T12:18:09.434Z,3.83
2018-09-23T12:20:37.810Z,3.50
2018-09-23T12:23:06.262Z,3.47
2018-09-23T12:25:37.035Z,3.80
2018-09-23T12:28:05.701Z,4.20
2018-09-23T12:30:34.639Z,4.03
2018-09-23T12:33:03.394Z,3.57
2018-09-23T12:35:31.875Z,4.17
2018-09-23T12:38:00.122Z,5.20
2018-09-23T12:40:28.451Z,4.33
2018-09-23T12:42:57.023Z,4.63
2018-09-23T12:45:25.384Z,4.90
2018-09-23T12:47:54.559Z,5.20
2018-09-23T12:50:22.821Z,5.80
2018-09-23T12:52:51.537Z,6.00
2018-09-23T12:55:19.959Z,5.70
2018-09-23T12:57:48.212Z,5.83
2018-09-23T13:00:16.514Z,5.73
2018-09-23T13:02:44.785Z,5.20
2018-09-23T13:05:13.138Z,4.93
2018-09-23T13:07:41.991Z,5.63
2018-09-23T13:10:10.436Z,5.77
2018-09-23T13:12:46.386Z,5.83
2018-09-23T13:15:19.743Z,5.83
2018-09-23T13:17:51.042Z,5.30
2018-09-23T13:20:23.674Z,4.20
2018-09-23T13:22:53.939Z,4.17
2018-09-23T13:25:25.774Z,3.80
2018-09-23T13:27:57.711Z,3.43
2018-09-23T13:30:30.558Z,4.20
2018-09-23T13:33:01.470Z,4.90
2018-09-23T13:35:37.912Z,5.23
2018-09-23T13:38:09.089Z,5.20
2018-09-23T13:45:36.260Z,5.63
2018-09-23T13:48:06.812Z,5.97
2018-09-23T13:50:41.178Z,5.40
2018-09-23T13:53:15.910Z,5.63
2018-09-23T13:55:46.832Z,5.50
2018-09-23T13:58:15.180Z,5.50
2018-09-23T14:00:43.460Z,5.37
2018-09-23T14:03:11.796Z,4.70
2018-09-23T14:05:40.039Z,4.87
2018-09-23T14:08:08.368Z,4.53
2018-09-23T14:10:36.678Z,4.57
2018-09-23T14:13:05.017Z,5.07
2018-09-23T14:15:33.341Z,5.50
2018-09-23T14:18:01.593Z,6.07
2018-09-23T14:20:30.009Z,7.60
2018-09-23T14:22:58.314Z,7.77
2018-09-23T14:25:26.726Z,8.30
2018-09-23T14:27:55.076Z,8.80
2018-09-23T14:30:23.477Z,8.23
2018-09-23T14:32:51.780Z,8.10
2018-09-23T14:35:20.096Z,8.03
2018-09-23T14:37:48.397Z,8.30
2018-09-23T14:40:16.681Z,9.60
2018-09-23T14:42:44.983Z,9.80
2018-09-23T14:45:13.255Z,10.20
2018-09-23T14:47:43.076Z,8.97
2018-09-23T14:50:11.366Z,9.37
2018-09-23T14:52:39.619Z,9.78
2018-09-23T14:55:08.962Z,9.90
2018-09-23T14:57:37.194Z,9.87
2018-09-23T15:00:05.743Z,9.98
2018-09-23T15:02:34.023Z,10.60
2018-09-23T15:05:02.518Z,9.60
2018-09-23T15:07:30.717Z,9.30
2018-09-23T15:09:59.287Z,9.03
2018-09-23T15:12:27.590Z,9.40
2018-09-23T15:14:55.870Z,8.00
2018-09-23T15:17:24.152Z,8.60
2018-09-23T15:19:52.400Z,7.87
2018-09-23T15:22:20.757Z,8.10
2018-09-23T15:24:48.994Z,5.77
2018-09-23T15:27:17.914Z,5.20
2018-09-23T15:29:47.319Z,5.10
2018-09-23T15:32:15.659Z,5.53
2018-09-23T15:34:43.945Z,4.90
2018-09-23T15:37:13.175Z,5.13
2018-09-23T15:39:41.479Z,5.97
2018-09-23T15:42:09.809Z,4.93
2018-09-23T15:44:38.144Z,5.58
2018-09-23T15:47:06.653Z,5.90
2018-09-23T15:49:36.566Z,6.28
2018-09-23T15:52:04.956Z,6.10
2018-09-23T15:54:33.822Z,6.30
2018-09-23T15:57:02.208Z,6.10
2018-09-23T15:59:30.678Z,6.23
2018-09-23T16:01:58.997Z,5.77
2018-09-23T16:04:27.438Z,5.87
2018-09-23T16:06:56.217Z,5.93
2018-09-23T16:09:24.801Z,5.93
2018-09-23T16:14:01.811Z,5.50
2018-09-23T16:16:30.106Z,5.23
2018-09-23T16:23:51.203Z,3.50
2018-09-23T16:26:19.584Z,4.33
2018-09-23T16:28:48.573Z,3.70
2018-09-23T16:31:16.900Z,3.58
2018-09-23T16:33:45.274Z,3.83
2018-09-23T16:41:06.709Z,2.73
2018-09-23T16:43:35.699Z,3.00
2018-09-23T16:46:05.196Z,3.53
2018-09-23T16:48:33.589Z,3.90
2018-09-23T16:51:03.395Z,6.33
2018-09-23T16:53:32.661Z,7.07
2018-09-23T16:56:02.546Z,4.33
2018-09-23T16:58:31.746Z,3.03
2018-09-23T17:01:00.369Z,4.50
2018-09-23T17:03:28.809Z,4.10
2018-09-23T17:05:57.088Z,3.70
2018-09-23T17:08:26.512Z,3.30
2018-09-23T17:10:54.800Z,3.77
2018-09-23T17:13:23.154Z,3.50
2018-09-23T17:15:51.436Z,3.20
2018-09-23T17:18:19.721Z,3.50
2018-09-23T17:20:47.935Z,3.23
2018-09-23T17:23:16.186Z,3.20
2018-09-23T17:25:44.906Z,3.30
2018-09-23T17:28:14.125Z,3.27
2018-09-23T17:30:42.286Z,3.37
2018-09-23T17:33:10.559Z,3.20
2018-09-23T17:35:38.932Z,3.30
2018-09-23T17:38:07.786Z,3.43
2018-09-23T17:40:37.268Z,3.20
2018-09-23T17:43:06.355Z,3.20
2018-09-23T17:45:34.663Z,3.40
2018-09-23T17:48:03.273Z,3.80
2018-09-23T17:50:31.495Z,3.87
2018-09-23T17:53:00.085Z,3.60
2018-09-23T17:55:28.470Z,3.70
2018-09-23T17:57:56.860Z,3.97
2018-09-23T18:00:25.676Z,3.80
2018-09-23T18:02:53.967Z,3.47
2018-09-23T18:05:22.509Z,4.20
2018-09-23T18:07:50.913Z,4.67
2018-09-23T18:10:19.139Z,4.23
2018-09-23T18:12:47.604Z,4.30
2018-09-23T18:15:16.074Z,4.93
2018-09-23T18:17:44.507Z,4.43
2018-09-23T18:20:12.817Z,4.73
2018-09-23T18:24:03.971Z,4.17
2018-09-23T18:26:32.430Z,4.17
2018-09-23T18:29:00.635Z,5.30
2018-09-23T18:31:29.072Z,4.53
2018-09-23T18:33:57.444Z,4.40
2018-09-23T18:36:25.815Z,4.30
2018-09-23T18:38:54.910Z,4.42
2018-09-23T18:41:23.259Z,4.60
2018-09-23T18:43:51.571Z,4.17
2018-09-23T18:46:19.879Z,4.40
2018-09-23T18:48:48.132Z,4.50
2018-09-23T18:51:16.769Z,4.45
2018-09-23T18:53:50.440Z,4.47
2018-09-23T18:56:22.447Z,3.83
2018-09-23T18:58:50.767Z,3.70
2018-09-23T19:01:18.961Z,4.05
2018-09-23T19:03:47.322Z,3.77
2018-09-23T19:06:15.514Z,3.67
2018-09-23T19:08:43.901Z,4.20
2018-09-23T19:11:12.227Z,4.57
2018-09-23T19:13:45.864Z,4.03
2018-09-23T19:16:19.496Z,4.20
2018-09-23T19:18:47.744Z,3.70
2018-09-23T19:21:16.037Z,4.03
2018-09-23T19:23:44.691Z,4.67
2018-09-23T19:26:12.874Z,5.57
2018-09-23T19:28:41.137Z,5.08
2018-09-23T19:31:09.307Z,4.23
2018-09-23T19:33:37.577Z,4.80
2018-09-23T19:36:06.310Z,4.67
2018-09-23T19:38:34.779Z,4.93
2018-09-23T19:41:03.126Z,3.97
2018-09-23T19:43:31.531Z,3.47
2018-09-23T19:45:59.845Z,3.65
2018-09-23T19:48:28.591Z,4.23
2018-09-23T19:55:50.555Z,3.30
2018-09-23T19:58:18.832Z,3.57
2018-09-23T20:00:47.057Z,3.77
2018-09-23T20:03:15.434Z,4.20
2018-09-23T20:05:43.714Z,4.27
2018-09-23T20:08:13.294Z,4.05
2018-09-23T20:10:41.593Z,4.13
2018-09-23T20:13:09.933Z,3.87
2018-09-23T20:15:38.251Z,4.07
2018-09-23T20:18:06.482Z,4.30
2018-09-23T20:20:34.780Z,4.62
2018-09-23T20:23:03.068Z,5.03
2018-09-23T20:25:31.324Z,3.93
2018-09-23T20:27:59.564Z,4.50
2018-09-23T20:35:20.741Z,4.40
2018-09-23T20:37:48.995Z,4.33
2018-09-23T20:40:17.239Z,4.27
2018-09-23T20:42:45.458Z,4.22
2018-09-23T20:45:13.723Z,4.00
2018-09-23T20:47:43.151Z,3.73
2018-09-23T20:50:11.440Z,3.60
2018-09-23T20:52:39.662Z,3.00
2018-09-23T20:55:07.957Z,2.65
2018-09-23T20:57:36.219Z,2.50
2018-09-23T21:00:05.603Z,3.47
2018-09-23T21:02:33.926Z,2.80
2018-09-23T21:05:02.252Z,2.58
2018-09-23T21:07:30.508Z,3.90
2018-09-23T21:09:58.723Z,2.80
2018-09-23T21:12:26.944Z,2.90
2018-09-23T21:14:55.437Z,2.80
2018-09-23T21:17:24.716Z,2.57
2018-09-23T21:19:53.709Z,2.93
2018-09-23T21:22:22.521Z,3.02
2018-09-23T21:24:50.802Z,2.47
2018-09-23T21:27:19.034Z,2.77
2018-09-23T21:29:47.234Z,2.20
2018-09-23T21:32:15.710Z,2.80
2018-09-23T21:34:44.019Z,2.30
2018-09-23T21:37:12.312Z,2.93
2018-09-23T21:39:41.966Z,3.10
2018-09-23T21:42:10.357Z,3.40
2018-09-23T21:44:38.862Z,3.73
2018-09-23T21:47:07.242Z,3.50
2018-09-23T21:49:36.315Z,3.30
2018-09-23T21:52:04.768Z,4.10
2018-09-23T21:54:33.196Z,3.80
2018-09-23T21:57:01.427Z,4.00
2018-09-23T21:59:29.694Z,4.30
2018-09-23T22:01:57.959Z,3.30
2018-09-23T22:04:26.198Z,4.30
2018-09-23T22:06:55.579Z,4.00
2018-09-23T22:09:23.790Z,4.00
2018-09-23T22:14:07.547Z,3.80
2018-09-23T22:16:35.755Z,4.13
2018-09-23T22:19:03.992Z,3.47
2018-09-23T22:21:32.266Z,3.77
2018-09-23T22:24:00.443Z,3.83
2018-09-23T22:26:28.698Z,3.43
2018-09-23T22:28:56.918Z,3.75
2018-09-23T22:31:25.155Z,3.40
2018-09-23T22:33:53.483Z,3.30
2018-09-23T22:36:21.889Z,3.10
2018-09-23T22:38:50.139Z,3.37
2018-09-23T22:46:11.480Z,3.00
2018-09-23T22:48:39.712Z,3.43
2018-09-23T22:51:07.905Z,3.07
2018-09-23T22:53:36.058Z,3.05
2018-09-23T22:56:04.686Z,3.87
2018-09-23T23:03:25.530Z,4.13
2018-09-23T23:05:53.715Z,3.73
2018-09-23T23:08:21.900Z,4.43
2018-09-23T23:10:50.333Z,4.85
2018-09-23T23:13:18.559Z,4.47
2018-09-23T23:15:48.094Z,4.70
2018-09-23T23:18:17.103Z,5.28
2018-09-23T23:20:45.293Z,5.47
2018-09-23T23:23:13.563Z,5.33
2018-09-23T23:25:41.775Z,5.87
2018-09-23T23:28:09.985Z,5.93
2018-09-23T23:30:38.317Z,5.67
2018-09-23T23:33:06.552Z,5.50
2018-09-23T23:35:34.772Z,5.50
2018-09-23T23:38:03.054Z,5.90
2018-09-23T23:40:31.252Z,6.00
2018-09-23T23:42:59.469Z,5.97
2018-09-23T23:45:27.636Z,5.00
2018-09-23T23:47:55.894Z,5.93
2018-09-23T23:50:24.342Z,5.40
2018-09-23T23:52:52.884Z,5.03
2018-09-23T23:55:22.395Z,5.22
2018-09-23T23:57:50.596Z,5.57
